createdAt,value
2019-04-16T00:00:11.877Z,5.43
2019-04-16T00:00:47.327Z,5.28
2019-04-16T00:01:21.326Z,5.21
2019-04-16T00:02:12.218Z,5.17
2019-04-16T00:02:52.278Z,5.34
2019-04-16T00:03:23.872Z,5.50
2019-04-16T00:03:57.069Z,5.58
2019-04-16T00:04:37.231Z,5.55
2019-04-16T00:05:13.009Z,5.50
2019-04-16T00:05:58.655Z,5.41
2019-04-16T00:06:32.570Z,5.31
2019-04-16T00:07:05.835Z,5.15
2019-04-16T00:07:41.492Z,5.21
2019-04-16T00:08:27.874Z,5.35
2019-04-16T00:08:54.162Z,5.46
2019-04-16T00:09:31.285Z,5.49
2019-04-16T00:10:23.815Z,5.45
2019-04-16T00:10:57.901Z,5.31
2019-04-16T00:11:48.718Z,5.22
2019-04-16T00:12:21.812Z,5.21
2019-04-16T00:12:54.890Z,5.31
2019-04-16T00:13:30.880Z,5.43
2019-04-16T00:14:08.505Z,5.52
2019-04-16T00:14:42.298Z,5.52
2019-04-16T00:15:13.477Z,5.49
2019-04-16T00:15:44.762Z,5.42
2019-04-16T00:16:15.960Z,5.34
2019-04-16T00:16:47.149Z,5.24
2019-04-16T00:17:18.331Z,5.18
2019-04-16T00:17:49.523Z,5.25
2019-04-16T00:18:20.905Z,5.34
2019-04-16T00:18:57.983Z,5.45
2019-04-16T00:19:25.155Z,5.48
2019-04-16T00:19:56.349Z,5.45
2019-04-16T00:20:27.525Z,5.41
2019-04-16T00:21:00.640Z,5.31
2019-04-16T00:21:41.239Z,5.22
2019-04-16T00:22:23.529Z,5.18
2019-04-16T00:23:03.697Z,5.31
2019-04-16T00:23:53.300Z,5.45
2019-04-16T00:24:26.366Z,5.50
2019-04-16T00:24:57.592Z,5.49
2019-04-16T00:25:28.876Z,5.42
2019-04-16T00:26:00.191Z,5.35
2019-04-16T00:26:31.473Z,5.25
2019-04-16T00:27:02.923Z,5.18
2019-04-16T00:27:34.161Z,5.22
2019-04-16T00:28:05.374Z,5.37
2019-04-16T00:28:36.528Z,5.48
2019-04-16T00:29:08.848Z,5.52
2019-04-16T00:29:40.060Z,5.49
2019-04-16T00:30:12.203Z,5.43
2019-04-16T00:30:43.398Z,5.37
2019-04-16T00:31:14.678Z,5.27
2019-04-16T00:31:47.767Z,5.17
2019-04-16T00:32:20.902Z,5.21
2019-04-16T00:32:52.066Z,5.34
2019-04-16T00:33:23.287Z,5.45
2019-04-16T00:33:54.443Z,5.53
2019-04-16T00:34:25.658Z,5.53
2019-04-16T00:34:56.898Z,5.50
2019-04-16T00:35:28.146Z,5.42
2019-04-16T00:35:59.374Z,5.34
2019-04-16T00:36:30.613Z,5.22
2019-04-16T00:37:01.852Z,5.17
2019-04-16T00:37:33.109Z,5.21
2019-04-16T00:38:04.360Z,5.34
2019-04-16T00:38:40.980Z,5.46
2019-04-16T00:39:09.148Z,5.49
2019-04-16T00:39:41.847Z,5.48
2019-04-16T00:40:13.096Z,5.42
2019-04-16T00:40:44.352Z,5.37
2019-04-16T00:41:15.574Z,5.29
2019-04-16T00:41:46.780Z,5.18
2019-04-16T00:42:19.025Z,5.19
2019-04-16T00:42:50.289Z,5.28
2019-04-16T00:43:21.528Z,5.41
2019-04-16T00:43:52.764Z,5.49
2019-04-16T00:44:24.017Z,5.49
2019-04-16T00:44:55.575Z,5.48
2019-04-16T00:45:26.933Z,5.39
2019-04-16T00:45:58.275Z,5.29
2019-04-16T00:46:29.481Z,5.19
2019-04-16T00:47:00.706Z,5.15
2019-04-16T00:47:32.052Z,5.24
2019-04-16T00:48:03.290Z,5.39
2019-04-16T00:48:34.557Z,5.52
2019-04-16T00:49:05.799Z,5.53
2019-04-16T00:49:37.979Z,5.52
2019-04-16T00:50:09.489Z,5.45
2019-04-16T00:50:40.743Z,5.35
2019-04-16T00:51:11.998Z,5.24
2019-04-16T00:51:43.226Z,5.17
2019-04-16T00:52:14.389Z,5.17
2019-04-16T00:52:45.601Z,5.32
2019-04-16T00:53:16.768Z,5.45
2019-04-16T00:53:47.993Z,5.53
2019-04-16T00:54:19.143Z,5.52
2019-04-16T00:54:50.358Z,5.48
2019-04-16T00:55:21.526Z,5.39
2019-04-16T00:55:52.840Z,5.29
2019-04-16T00:56:24.032Z,5.19
2019-04-16T00:56:55.247Z,5.15
2019-04-16T00:57:26.410Z,5.24
2019-04-16T00:57:57.626Z,5.38
2019-04-16T00:58:29.840Z,5.49
2019-04-16T00:59:02.175Z,5.50
2019-04-16T00:59:33.420Z,5.49
2019-04-16T01:00:05.146Z,5.41
2019-04-16T01:00:36.400Z,5.32
2019-04-16T01:01:07.614Z,5.21
2019-04-16T01:01:38.845Z,5.14
2019-04-16T01:02:10.153Z,5.19
2019-04-16T01:02:41.355Z,5.34
2019-04-16T01:03:12.625Z,5.45
2019-04-16T01:03:43.779Z,5.49
2019-04-16T01:04:14.997Z,5.49
2019-04-16T01:04:46.172Z,5.41
2019-04-16T01:05:17.505Z,5.34
2019-04-16T01:05:48.659Z,5.22
2019-04-16T01:06:19.848Z,5.17
2019-04-16T01:06:51.042Z,5.19
2019-04-16T01:07:22.257Z,5.32
2019-04-16T01:07:53.419Z,5.46
2019-04-16T01:08:24.641Z,5.52
2019-04-16T01:08:55.805Z,5.50
2019-04-16T01:09:27.609Z,5.45
2019-04-16T01:09:58.766Z,5.35
2019-04-16T01:10:29.980Z,5.25
2019-04-16T01:11:01.125Z,5.17
2019-04-16T01:11:32.365Z,5.19
2019-04-16T01:12:03.660Z,5.28
2019-04-16T01:12:34.872Z,5.45
2019-04-16T01:13:06.030Z,5.53
2019-04-16T01:13:37.248Z,5.53
2019-04-16T01:14:08.398Z,5.49
2019-04-16T01:14:39.713Z,5.41
2019-04-16T01:15:10.971Z,5.32
2019-04-16T01:15:42.232Z,5.19
2019-04-16T01:16:13.474Z,5.12
2019-04-16T01:16:44.692Z,5.18
2019-04-16T01:17:15.892Z,5.31
2019-04-16T01:17:47.107Z,5.46
2019-04-16T01:18:18.260Z,5.53
2019-04-16T01:18:49.472Z,5.50
2019-04-16T01:19:20.625Z,5.46
2019-04-16T01:19:51.984Z,5.41
2019-04-16T01:20:23.140Z,5.29
2019-04-16T01:20:54.426Z,5.19
2019-04-16T01:21:25.652Z,5.14
2019-04-16T01:21:56.862Z,5.21
2019-04-16T01:22:28.051Z,5.34
2019-04-16T01:22:59.272Z,5.45
2019-04-16T01:23:30.430Z,5.50
2019-04-16T01:24:01.696Z,5.46
2019-04-16T01:24:32.883Z,5.39
2019-04-16T01:25:05.302Z,5.29
2019-04-16T01:25:36.461Z,5.18
2019-04-16T01:26:07.834Z,5.15
2019-04-16T01:26:39.119Z,5.21
2019-04-16T01:27:10.330Z,5.34
2019-04-16T01:27:43.670Z,5.45
2019-04-16T01:28:33.155Z,5.50
2019-04-16T01:29:06.209Z,5.43
2019-04-16T01:29:37.423Z,5.35
2019-04-16T01:30:10.572Z,5.24
2019-04-16T01:30:46.500Z,5.17
2019-04-16T01:31:17.659Z,5.17
2019-04-16T01:31:57.656Z,5.32
2019-04-16T01:32:47.159Z,5.46
2019-04-16T01:33:23.138Z,5.45
2019-04-16T01:33:57.181Z,5.43
2019-04-16T01:34:34.378Z,5.31
2019-04-16T01:35:18.708Z,5.19
2019-04-16T01:36:00.261Z,5.17
2019-04-16T01:36:36.230Z,5.32
2019-04-16T01:37:17.995Z,5.45
2019-04-16T01:38:07.596Z,5.50
2019-04-16T01:38:52.722Z,5.41
2019-04-16T01:39:28.496Z,5.28
2019-04-16T01:40:01.423Z,5.17
2019-04-16T01:40:34.506Z,5.17
2019-04-16T01:41:07.594Z,5.25
2019-04-16T01:41:38.802Z,5.42
2019-04-16T01:42:09.981Z,5.50
2019-04-16T01:42:41.358Z,5.53
2019-04-16T01:43:12.598Z,5.48
2019-04-16T01:43:43.797Z,5.41
2019-04-16T01:44:14.959Z,5.29
2019-04-16T01:44:46.174Z,5.19
2019-04-16T01:45:17.333Z,5.15
2019-04-16T01:45:48.541Z,5.22
2019-04-16T01:46:19.709Z,5.34
2019-04-16T01:46:50.924Z,5.46
2019-04-16T01:47:22.098Z,5.50
2019-04-16T01:47:53.318Z,5.50
2019-04-16T01:48:24.495Z,5.43
2019-04-16T01:48:55.713Z,5.34
2019-04-16T01:49:26.879Z,5.22
2019-04-16T01:49:58.103Z,5.17
2019-04-16T01:50:29.263Z,5.15
2019-04-16T01:51:00.568Z,5.29
2019-04-16T01:51:31.729Z,5.45
2019-04-16T01:52:02.940Z,5.49
2019-04-16T01:52:34.149Z,5.50
2019-04-16T01:53:05.384Z,5.45
2019-04-16T01:53:36.581Z,5.38
2019-04-16T01:54:08.866Z,5.24
2019-04-16T01:54:40.281Z,5.15
2019-04-16T01:55:11.810Z,5.15
2019-04-16T01:55:43.066Z,5.29
2019-04-16T01:56:14.330Z,5.43
2019-04-16T01:56:45.586Z,5.52
2019-04-16T01:57:16.854Z,5.49
2019-04-16T01:57:48.104Z,5.45
2019-04-16T01:58:19.363Z,5.38
2019-04-16T01:58:50.604Z,5.27
2019-04-16T01:59:21.984Z,5.15
2019-04-16T01:59:53.218Z,5.14
2019-04-16T02:00:24.490Z,5.22
2019-04-16T02:00:55.742Z,5.37
2019-04-16T02:01:26.985Z,5.48
2019-04-16T02:01:58.254Z,5.50
2019-04-16T02:02:29.507Z,5.45
2019-04-16T02:03:00.752Z,5.39
2019-04-16T02:03:31.998Z,5.25
2019-04-16T02:04:03.213Z,5.15
2019-04-16T02:04:34.371Z,5.12
2019-04-16T02:05:05.677Z,5.22
2019-04-16T02:05:36.844Z,5.35
2019-04-16T02:06:08.242Z,5.43
2019-04-16T02:06:39.402Z,5.48
2019-04-16T02:07:10.587Z,5.43
2019-04-16T02:07:41.935Z,5.37
2019-04-16T02:08:13.190Z,5.24
2019-04-16T02:08:44.341Z,5.11
2019-04-16T02:09:22.242Z,5.17
2019-04-16T02:09:48.608Z,5.22
2019-04-16T02:10:19.756Z,5.42
2019-04-16T02:10:50.968Z,5.50
2019-04-16T02:11:22.126Z,5.53
2019-04-16T02:11:53.331Z,5.45
2019-04-16T02:12:24.478Z,5.39
2019-04-16T02:12:55.692Z,5.25
2019-04-16T02:13:26.841Z,5.17
2019-04-16T02:13:58.051Z,5.14
2019-04-16T02:14:29.235Z,5.22
2019-04-16T02:15:00.485Z,5.37
2019-04-16T02:15:31.941Z,5.46
2019-04-16T02:16:03.155Z,5.52
2019-04-16T02:16:34.343Z,5.49
2019-04-16T02:17:05.631Z,5.39
2019-04-16T02:17:36.786Z,5.31
2019-04-16T02:18:08.254Z,5.18
2019-04-16T02:18:39.408Z,5.12
2019-04-16T02:19:10.616Z,5.18
2019-04-16T02:19:41.798Z,5.34
2019-04-16T02:20:13.023Z,5.48
2019-04-16T02:20:44.186Z,5.53
2019-04-16T02:21:15.408Z,5.53
2019-04-16T02:21:46.584Z,5.48
2019-04-16T02:22:17.799Z,5.38
2019-04-16T02:22:48.956Z,5.25
2019-04-16T02:23:20.171Z,5.12
2019-04-16T02:23:51.331Z,5.14
2019-04-16T02:24:22.661Z,5.21
2019-04-16T02:24:53.857Z,5.38
2019-04-16T02:25:25.043Z,5.48
2019-04-16T02:25:56.253Z,5.52
2019-04-16T02:26:27.441Z,5.48
2019-04-16T02:26:58.625Z,5.41
2019-04-16T02:27:29.823Z,5.28
2019-04-16T02:28:01.019Z,5.18
2019-04-16T02:28:32.210Z,5.14
2019-04-16T02:29:03.395Z,5.19
2019-04-16T02:29:34.590Z,5.34
2019-04-16T02:30:06.036Z,5.43
2019-04-16T02:30:39.529Z,5.50
2019-04-16T02:31:15.854Z,5.48
2019-04-16T02:31:43.624Z,5.39
2019-04-16T02:32:14.781Z,5.28
2019-04-16T02:32:46.014Z,5.18
2019-04-16T02:33:18.189Z,5.11
2019-04-16T02:33:50.661Z,5.18
2019-04-16T02:34:21.859Z,5.32
2019-04-16T02:34:53.154Z,5.45
2019-04-16T02:35:24.384Z,5.53
2019-04-16T02:35:55.572Z,5.52
2019-04-16T02:36:26.757Z,5.46
2019-04-16T02:37:02.494Z,5.38
2019-04-16T02:37:35.520Z,5.22
2019-04-16T02:38:11.124Z,5.11
2019-04-16T02:38:37.162Z,5.14
2019-04-16T02:39:08.318Z,5.22
2019-04-16T02:39:48.581Z,5.41
2019-04-16T02:40:17.022Z,5.50
2019-04-16T02:40:51.599Z,5.53
2019-04-16T02:41:23.236Z,5.49
2019-04-16T02:41:56.826Z,5.37
2019-04-16T02:42:30.445Z,5.27
2019-04-16T02:43:03.944Z,5.15
2019-04-16T02:43:31.540Z,5.14
2019-04-16T02:44:03.274Z,5.24
2019-04-16T02:44:34.435Z,5.42
2019-04-16T02:45:05.758Z,5.53
2019-04-16T02:45:36.956Z,5.53
2019-04-16T02:46:08.505Z,5.52
2019-04-16T02:46:40.753Z,5.41
2019-04-16T02:47:12.009Z,5.32
2019-04-16T02:47:43.247Z,5.21
2019-04-16T02:48:16.668Z,5.15
2019-04-16T02:48:51.473Z,5.17
2019-04-16T02:49:24.453Z,5.32
2019-04-16T02:49:56.802Z,5.45
2019-04-16T02:50:32.258Z,5.53
2019-04-16T02:51:08.710Z,5.52
2019-04-16T02:51:41.838Z,5.43
2019-04-16T02:52:16.451Z,5.32
2019-04-16T02:52:55.646Z,5.19
2019-04-16T02:53:29.712Z,5.10
2019-04-16T02:54:02.773Z,5.19
2019-04-16T02:54:35.903Z,5.34
2019-04-16T02:55:20.703Z,5.50
2019-04-16T02:55:53.814Z,5.56
2019-04-16T02:56:24.997Z,5.50
2019-04-16T02:56:59.102Z,5.45
2019-04-16T02:57:45.370Z,5.34
2019-04-16T02:58:21.407Z,5.14
2019-04-16T02:59:00.510Z,5.17
2019-04-16T02:59:33.668Z,5.28
2019-04-16T03:00:06.819Z,5.42
2019-04-16T03:00:38.521Z,5.55
2019-04-16T03:01:28.093Z,5.56
2019-04-16T03:02:17.457Z,5.43
2019-04-16T03:02:56.400Z,5.27
2019-04-16T03:03:32.145Z,5.12
2019-04-16T03:04:14.203Z,5.17
2019-04-16T03:04:58.040Z,5.32
2019-04-16T03:05:29.014Z,5.46
2019-04-16T03:06:01.881Z,5.49
2019-04-16T03:06:33.383Z,5.48
2019-04-16T03:07:04.649Z,5.41
2019-04-16T03:07:35.895Z,5.31
2019-04-16T03:08:07.114Z,5.19
2019-04-16T03:08:38.443Z,5.15
2019-04-16T03:09:09.976Z,5.18
2019-04-16T03:09:41.532Z,5.35
2019-04-16T03:10:13.914Z,5.43
2019-04-16T03:10:45.421Z,5.50
2019-04-16T03:11:17.994Z,5.46
2019-04-16T03:11:49.365Z,5.42
2019-04-16T03:12:21.527Z,5.34
2019-04-16T03:12:52.980Z,5.21
2019-04-16T03:13:24.822Z,5.15
2019-04-16T03:13:59.242Z,5.21
2019-04-16T03:14:30.131Z,5.32
2019-04-16T03:15:02.795Z,5.45
2019-04-16T03:15:35.978Z,5.52
2019-04-16T03:16:09.655Z,5.48
2019-04-16T03:16:55.536Z,5.39
2019-04-16T03:17:42.914Z,5.27
2019-04-16T03:18:16.230Z,5.12
2019-04-16T03:19:04.173Z,5.17
2019-04-16T03:19:43.181Z,5.39
2019-04-16T03:20:16.529Z,5.48
2019-04-16T03:20:47.776Z,5.50
2019-04-16T03:21:19.021Z,5.46
2019-04-16T03:21:50.267Z,5.35
2019-04-16T03:22:21.483Z,5.25
2019-04-16T03:22:52.669Z,5.17
2019-04-16T03:23:23.906Z,5.14
2019-04-16T03:23:55.146Z,5.27
2019-04-16T03:24:26.394Z,5.41
2019-04-16T03:24:57.744Z,5.49
2019-04-16T03:25:29.024Z,5.50
2019-04-16T03:26:00.261Z,5.46
2019-04-16T03:26:31.494Z,5.37
2019-04-16T03:27:04.567Z,5.24
2019-04-16T03:27:35.858Z,5.14
2019-04-16T03:28:07.040Z,5.17
2019-04-16T03:28:38.390Z,5.25
2019-04-16T03:29:10.652Z,5.42
2019-04-16T03:29:41.992Z,5.52
2019-04-16T03:30:13.650Z,5.52
2019-04-16T03:30:45.031Z,5.50
2019-04-16T03:31:22.304Z,5.41
2019-04-16T03:31:57.323Z,5.28
2019-04-16T03:32:22.606Z,5.17
2019-04-16T03:32:53.829Z,5.11
2019-04-16T03:33:25.265Z,5.19
2019-04-16T03:33:56.549Z,5.35
2019-04-16T03:34:27.823Z,5.48
2019-04-16T03:34:59.111Z,5.48
2019-04-16T03:35:30.389Z,5.45
2019-04-16T03:36:01.646Z,5.39
2019-04-16T03:36:32.893Z,5.31
2019-04-16T03:37:04.145Z,5.17
2019-04-16T03:37:35.328Z,5.14
2019-04-16T03:38:06.574Z,5.19
2019-04-16T03:38:41.803Z,5.34
2019-04-16T03:39:13.190Z,5.46
2019-04-16T03:39:44.927Z,5.52
2019-04-16T03:40:18.642Z,5.49
2019-04-16T03:40:49.467Z,5.43
2019-04-16T03:41:20.722Z,5.34
2019-04-16T03:41:56.016Z,5.24
2019-04-16T03:42:27.390Z,5.15
2019-04-16T03:42:59.302Z,5.21
2019-04-16T03:43:32.828Z,5.35
2019-04-16T03:44:05.104Z,5.48
2019-04-16T03:44:37.452Z,5.49
2019-04-16T03:45:09.864Z,5.50
2019-04-16T03:45:41.750Z,5.45
2019-04-16T03:46:14.190Z,5.38
2019-04-16T03:46:46.916Z,5.24
2019-04-16T03:47:19.877Z,5.17
2019-04-16T03:47:52.280Z,5.18
2019-04-16T03:48:24.483Z,5.32
2019-04-16T03:48:56.471Z,5.45
2019-04-16T03:49:28.491Z,5.49
2019-04-16T03:50:00.254Z,5.46
2019-04-16T03:50:32.231Z,5.41
2019-04-16T03:51:04.757Z,5.29
2019-04-16T03:51:36.579Z,5.21
2019-04-16T03:52:09.437Z,5.14
2019-04-16T03:52:45.501Z,5.19
2019-04-16T03:53:17.487Z,5.37
2019-04-16T03:53:49.541Z,5.46
2019-04-16T03:54:22.380Z,5.52
2019-04-16T03:54:54.709Z,5.50
2019-04-16T03:55:26.573Z,5.43
2019-04-16T03:55:58.305Z,5.34
2019-04-16T03:56:31.189Z,5.22
2019-04-16T03:57:02.876Z,5.12
2019-04-16T03:57:34.163Z,5.19
2019-04-16T03:58:06.751Z,5.32
2019-04-16T03:58:39.393Z,5.45
2019-04-16T03:59:12.044Z,5.49
2019-04-16T03:59:43.791Z,5.49
2019-04-16T04:00:15.031Z,5.41
2019-04-16T04:00:46.275Z,5.32
2019-04-16T04:01:17.537Z,5.18
2019-04-16T04:01:48.769Z,5.18
2019-04-16T04:02:22.868Z,5.21
2019-04-16T04:02:55.149Z,5.34
2019-04-16T04:03:26.928Z,5.46
2019-04-16T04:03:58.588Z,5.52
2019-04-16T04:04:30.030Z,5.46
2019-04-16T04:05:06.119Z,5.37
2019-04-16T04:05:35.663Z,5.29
2019-04-16T04:06:08.082Z,5.18
2019-04-16T04:06:40.616Z,5.12
2019-04-16T04:07:13.326Z,5.22
2019-04-16T04:07:45.092Z,5.37
2019-04-16T04:08:17.921Z,5.48
2019-04-16T04:08:53.132Z,5.49
2019-04-16T04:09:22.982Z,5.45
2019-04-16T04:09:55.184Z,5.38
2019-04-16T04:10:30.789Z,5.27
2019-04-16T04:10:59.500Z,5.17
2019-04-16T04:11:31.974Z,5.15
2019-04-16T04:12:03.158Z,5.25
2019-04-16T04:12:34.489Z,5.39
2019-04-16T04:13:05.843Z,5.49
2019-04-16T04:13:37.057Z,5.50
2019-04-16T04:14:09.345Z,5.48
2019-04-16T04:14:41.545Z,5.41
2019-04-16T04:15:13.092Z,5.29
2019-04-16T04:15:44.353Z,5.21
2019-04-16T04:16:15.600Z,5.14
2019-04-16T04:16:46.841Z,5.18
2019-04-16T04:17:18.045Z,5.31
2019-04-16T04:17:49.293Z,5.46
2019-04-16T04:18:20.483Z,5.53
2019-04-16T04:18:51.693Z,5.53
2019-04-16T04:19:22.877Z,5.45
2019-04-16T04:19:54.071Z,5.37
2019-04-16T04:20:25.293Z,5.25
2019-04-16T04:20:56.466Z,5.18
2019-04-16T04:21:27.695Z,5.17
2019-04-16T04:21:58.881Z,5.27
2019-04-16T04:22:30.068Z,5.39
2019-04-16T04:23:01.250Z,5.48
2019-04-16T04:23:32.444Z,5.50
2019-04-16T04:24:03.659Z,5.49
2019-04-16T04:24:34.854Z,5.38
2019-04-16T04:25:06.606Z,5.29
2019-04-16T04:25:38.942Z,5.19
2019-04-16T04:26:10.306Z,5.15
2019-04-16T04:26:42.402Z,5.24
2019-04-16T04:27:18.229Z,5.37
2019-04-16T04:27:47.703Z,5.48
2019-04-16T04:28:20.568Z,5.50
2019-04-16T04:28:52.643Z,5.48
2019-04-16T04:29:24.862Z,5.42
2019-04-16T04:29:57.270Z,5.34
2019-04-16T04:30:29.551Z,5.21
2019-04-16T04:31:01.984Z,5.17
2019-04-16T04:31:33.281Z,5.22
2019-04-16T04:32:04.482Z,5.38
2019-04-16T04:32:36.301Z,5.46
2019-04-16T04:33:09.431Z,5.53
2019-04-16T04:33:43.003Z,5.49
2019-04-16T04:34:16.987Z,5.45
2019-04-16T04:34:48.575Z,5.34
2019-04-16T04:35:22.077Z,5.24
2019-04-16T04:35:53.573Z,5.14
2019-04-16T04:36:27.093Z,5.19
2019-04-16T04:36:59.733Z,5.32
2019-04-16T04:37:31.929Z,5.48
2019-04-16T04:38:04.203Z,5.50
2019-04-16T04:38:37.571Z,5.48
2019-04-16T04:39:14.432Z,5.41
2019-04-16T04:39:44.253Z,5.31
2019-04-16T04:40:17.544Z,5.19
2019-04-16T04:40:50.952Z,5.15
2019-04-16T04:41:23.049Z,5.24
2019-04-16T04:41:56.448Z,5.35
2019-04-16T04:42:29.014Z,5.45
2019-04-16T04:43:01.725Z,5.48
2019-04-16T04:43:34.202Z,5.45
2019-04-16T04:44:06.586Z,5.38
2019-04-16T04:44:37.783Z,5.29
2019-04-16T04:45:10.201Z,5.19
2019-04-16T04:45:41.937Z,5.19
2019-04-16T04:46:14.970Z,5.25
2019-04-16T04:46:46.961Z,5.39
2019-04-16T04:47:19.677Z,5.46
2019-04-16T04:47:52.273Z,5.52
2019-04-16T04:48:24.344Z,5.46
2019-04-16T04:48:59.908Z,5.42
2019-04-16T04:49:30.377Z,5.32
2019-04-16T04:50:04.439Z,5.22
2019-04-16T04:50:36.088Z,5.19
2019-04-16T04:51:08.733Z,5.25
2019-04-16T04:51:43.527Z,5.38
2019-04-16T04:52:14.641Z,5.49
2019-04-16T04:52:46.889Z,5.48
2019-04-16T04:53:19.618Z,5.46
2019-04-16T04:53:51.363Z,5.41
2019-04-16T04:54:23.497Z,5.31
2019-04-16T04:54:54.942Z,5.21
2019-04-16T04:55:27.035Z,5.19
2019-04-16T04:55:58.301Z,5.22
2019-04-16T04:56:29.441Z,5.37
2019-04-16T04:57:00.657Z,5.45
2019-04-16T04:57:32.037Z,5.52
2019-04-16T04:58:03.465Z,5.48
2019-04-16T04:58:34.894Z,5.45
2019-04-16T04:59:06.240Z,5.38
2019-04-16T04:59:38.526Z,5.27
2019-04-16T05:00:09.845Z,5.17
2019-04-16T05:00:41.330Z,5.19
2019-04-16T05:01:14.100Z,5.29
2019-04-16T05:01:45.629Z,5.45
2019-04-16T05:02:16.956Z,5.50
2019-04-16T05:02:48.205Z,5.52
2019-04-16T05:03:38.204Z,5.48
2019-04-16T05:04:20.626Z,5.37
2019-04-16T05:04:58.068Z,5.22
2019-04-16T05:05:31.126Z,5.17
2019-04-16T05:06:19.016Z,5.24
2019-04-16T05:06:54.341Z,5.43
2019-04-16T05:07:25.759Z,5.49
2019-04-16T05:07:59.986Z,5.48
2019-04-16T05:08:31.368Z,5.48
2019-04-16T05:09:04.661Z,5.41
2019-04-16T05:09:36.763Z,5.31
2019-04-16T05:10:08.407Z,5.22
2019-04-16T05:10:42.925Z,5.19
2019-04-16T05:11:15.486Z,5.25
2019-04-16T05:11:48.377Z,5.41
2019-04-16T05:12:21.325Z,5.49
2019-04-16T05:12:53.575Z,5.52
2019-04-16T05:13:25.332Z,5.49
2019-04-16T05:13:57.110Z,5.45
2019-04-16T05:14:28.465Z,5.37
2019-04-16T05:14:59.698Z,5.29
2019-04-16T05:15:30.836Z,5.22
2019-04-16T05:16:03.085Z,5.18
2019-04-16T05:16:35.049Z,5.27
2019-04-16T05:17:07.464Z,5.42
2019-04-16T05:17:39.865Z,5.49
2019-04-16T05:18:11.599Z,5.55
2019-04-16T05:18:42.839Z,5.50
2019-04-16T05:19:15.511Z,5.42
2019-04-16T05:19:47.147Z,5.38
2019-04-16T05:20:18.388Z,5.29
2019-04-16T05:20:49.551Z,5.21
2019-04-16T05:21:20.780Z,5.17
2019-04-16T05:21:51.922Z,5.29
2019-04-16T05:22:23.155Z,5.39
2019-04-16T05:22:54.523Z,5.50
2019-04-16T05:23:26.175Z,5.55
2019-04-16T05:23:58.094Z,5.53
2019-04-16T05:24:29.998Z,5.52
2019-04-16T05:25:03.495Z,5.48
2019-04-16T05:25:34.717Z,5.37
2019-04-16T05:26:05.880Z,5.31
2019-04-16T05:26:37.287Z,5.21
2019-04-16T05:27:09.439Z,5.21
2019-04-16T05:27:41.574Z,5.29
2019-04-16T05:28:13.395Z,5.43
2019-04-16T05:28:45.728Z,5.52
2019-04-16T05:29:18.608Z,5.53
2019-04-16T05:29:49.996Z,5.55
2019-04-16T05:30:22.096Z,5.48
2019-04-16T05:30:53.448Z,5.41
2019-04-16T05:31:25.676Z,5.39
2019-04-16T05:31:58.248Z,5.28
2019-04-16T05:32:33.908Z,5.24
2019-04-16T05:33:05.633Z,5.21
2019-04-16T05:33:37.498Z,5.28
2019-04-16T05:34:09.208Z,5.39
2019-04-16T05:34:41.135Z,5.48
2019-04-16T05:35:12.504Z,5.50
2019-04-16T05:35:43.723Z,5.49
2019-04-16T05:36:15.437Z,5.43
2019-04-16T05:36:48.124Z,5.38
2019-04-16T05:37:20.929Z,5.32
2019-04-16T05:37:52.349Z,5.25
2019-04-16T05:38:24.494Z,5.24
2019-04-16T05:38:56.425Z,5.24
2019-04-16T05:39:28.569Z,5.37
2019-04-16T05:39:59.831Z,5.46
2019-04-16T05:40:34.348Z,5.49
2019-04-16T05:41:13.235Z,5.50
2019-04-16T05:41:37.227Z,5.49
2019-04-16T05:42:08.459Z,5.45
2019-04-16T05:42:39.655Z,5.43
2019-04-16T05:43:10.853Z,5.39
2019-04-16T05:43:42.055Z,5.37
2019-04-16T05:44:13.229Z,5.31
2019-04-16T05:44:44.469Z,5.27
2019-04-16T05:45:15.765Z,5.22
2019-04-16T05:45:46.956Z,5.27
2019-04-16T05:46:19.140Z,5.34
2019-04-16T05:46:50.349Z,5.41
2019-04-16T05:47:21.535Z,5.43
2019-04-16T05:47:52.708Z,5.43
2019-04-16T05:48:23.908Z,5.39
2019-04-16T05:48:55.092Z,5.38
2019-04-16T05:49:26.537Z,5.38
2019-04-16T05:49:58.687Z,5.32
2019-04-16T05:50:30.078Z,5.27
2019-04-16T05:51:01.258Z,5.24
2019-04-16T05:51:32.456Z,5.25
2019-04-16T05:52:04.172Z,5.37
2019-04-16T05:52:36.517Z,5.39
2019-04-16T05:53:09.336Z,5.43
2019-04-16T05:53:42.623Z,5.45
2019-04-16T05:54:21.636Z,5.43
2019-04-16T05:55:09.474Z,5.39
2019-04-16T05:55:49.651Z,5.38
2019-04-16T05:56:24.657Z,5.34
2019-04-16T05:57:13.289Z,5.31
2019-04-16T05:57:46.458Z,5.27
2019-04-16T05:58:17.742Z,5.22
2019-04-16T05:58:48.906Z,5.27
2019-04-16T05:59:20.063Z,5.35
2019-04-16T05:59:52.250Z,5.38
2019-04-16T06:00:25.325Z,5.38
2019-04-16T06:01:01.062Z,5.41
2019-04-16T06:01:46.227Z,5.38
2019-04-16T06:02:26.107Z,5.37
2019-04-16T06:02:57.341Z,5.32
2019-04-16T06:03:28.517Z,5.29
2019-04-16T06:03:59.741Z,5.28
2019-04-16T06:04:30.903Z,5.24
2019-04-16T06:05:03.725Z,5.24
2019-04-16T06:05:34.891Z,5.27
2019-04-16T06:06:06.115Z,5.29
2019-04-16T06:06:37.313Z,5.34
2019-04-16T06:07:08.525Z,5.34
2019-04-16T06:07:39.727Z,5.37
2019-04-16T06:08:11.239Z,5.38
2019-04-16T06:08:42.422Z,5.34
2019-04-16T06:09:13.631Z,5.34
2019-04-16T06:09:45.352Z,5.34
2019-04-16T06:10:18.269Z,5.31
2019-04-16T06:10:50.935Z,5.29
2019-04-16T06:11:29.419Z,5.29
2019-04-16T06:11:55.511Z,5.29
2019-04-16T06:12:28.605Z,5.27
2019-04-16T06:12:59.813Z,5.28
2019-04-16T06:13:35.583Z,5.27
2019-04-16T06:14:16.874Z,5.29
2019-04-16T06:15:01.304Z,5.29
2019-04-16T06:15:37.320Z,5.31
2019-04-16T06:16:16.602Z,5.31
2019-04-16T06:17:06.342Z,5.32
2019-04-16T06:17:55.866Z,5.31
2019-04-16T06:18:37.044Z,5.27
2019-04-16T06:19:15.038Z,5.28
2019-04-16T06:19:51.029Z,5.29
2019-04-16T06:20:24.074Z,5.28
2019-04-16T06:20:55.302Z,5.28
2019-04-16T06:21:29.489Z,5.29
2019-04-16T06:22:06.678Z,5.27
2019-04-16T06:22:51.776Z,5.28
2019-04-16T06:23:41.122Z,5.27
2019-04-16T06:24:12.281Z,5.27
2019-04-16T06:25:08.383Z,5.28
2019-04-16T06:25:41.268Z,5.27
2019-04-16T06:26:16.617Z,5.28
2019-04-16T06:27:07.216Z,5.27
2019-04-16T06:27:40.351Z,5.28
2019-04-16T06:28:20.384Z,5.32
2019-04-16T06:28:55.147Z,5.29
2019-04-16T06:29:25.392Z,5.28
2019-04-16T06:30:05.742Z,5.31
2019-04-16T06:30:38.787Z,5.34
2019-04-16T06:31:11.967Z,5.35
2019-04-16T06:31:45.031Z,5.34
2019-04-16T06:32:16.272Z,5.37
2019-04-16T06:33:01.385Z,5.41
2019-04-16T06:33:32.580Z,5.39
2019-04-16T06:34:24.354Z,5.41
2019-04-16T06:35:02.894Z,5.43
2019-04-16T06:35:43.594Z,5.45
2019-04-16T06:36:22.828Z,5.48
2019-04-16T06:36:58.829Z,5.46
2019-04-16T06:37:48.199Z,5.52
2019-04-16T06:38:21.571Z,5.55
2019-04-16T06:39:03.523Z,5.55
2019-04-16T06:39:38.529Z,5.58
2019-04-16T06:40:11.637Z,5.59
2019-04-16T06:40:48.134Z,5.62
2019-04-16T06:41:41.607Z,5.62
2019-04-16T06:42:06.104Z,5.63
2019-04-16T06:42:39.238Z,5.69
2019-04-16T06:43:28.795Z,5.70
2019-04-16T06:44:03.944Z,5.72
2019-04-16T06:44:36.886Z,5.73
2019-04-16T06:45:12.752Z,5.79
2019-04-16T06:45:45.812Z,5.77
2019-04-16T06:46:27.601Z,5.80
2019-04-16T06:47:00.671Z,5.83
2019-04-16T06:47:33.798Z,5.83
2019-04-16T06:48:13.225Z,5.89
2019-04-16T06:48:47.810Z,5.87
2019-04-16T06:49:20.903Z,5.92
2019-04-16T06:49:57.149Z,5.92
2019-04-16T06:50:32.529Z,5.93
2019-04-16T06:51:01.585Z,5.94
2019-04-16T06:51:50.975Z,5.98
2019-04-16T06:52:37.177Z,5.98
2019-04-16T06:53:08.619Z,6.01
2019-04-16T06:53:44.361Z,6.07
2019-04-16T06:54:34.403Z,6.08
2019-04-16T06:55:19.535Z,6.10
2019-04-16T06:55:56.564Z,6.13
2019-04-16T06:56:30.578Z,6.16
2019-04-16T06:57:20.233Z,6.18
2019-04-16T06:58:09.561Z,6.21
2019-04-16T06:58:51.259Z,6.24
2019-04-16T06:59:17.901Z,6.27
2019-04-16T06:59:59.459Z,6.28
2019-04-16T07:00:39.831Z,6.31
2019-04-16T07:01:17.252Z,6.31
2019-04-16T07:01:56.493Z,6.35
2019-04-16T07:02:44.006Z,6.35
2019-04-16T07:03:33.963Z,6.36
2019-04-16T07:04:07.127Z,6.38
2019-04-16T07:04:46.323Z,6.42
2019-04-16T07:05:35.981Z,6.41
2019-04-16T07:06:25.805Z,6.44
2019-04-16T07:07:15.440Z,6.48
2019-04-16T07:08:06.848Z,6.49
2019-04-16T07:08:41.984Z,6.51
2019-04-16T07:09:13.322Z,6.53
2019-04-16T07:09:46.437Z,6.52
2019-04-16T07:10:19.586Z,6.56
2019-04-16T07:10:53.692Z,6.57
2019-04-16T07:11:26.644Z,6.59
2019-04-16T07:12:02.764Z,6.60
2019-04-16T07:12:38.169Z,6.60
2019-04-16T07:13:09.980Z,6.64
2019-04-16T07:13:42.212Z,6.65
2019-04-16T07:14:15.646Z,6.68
2019-04-16T07:14:48.329Z,6.68
2019-04-16T07:15:24.193Z,6.73
2019-04-16T07:15:56.425Z,6.73
2019-04-16T07:16:28.862Z,6.75
2019-04-16T07:17:00.118Z,6.78
2019-04-16T07:17:33.726Z,6.79
2019-04-16T07:18:06.207Z,6.83
2019-04-16T07:18:38.706Z,6.86
2019-04-16T07:19:11.650Z,6.90
2019-04-16T07:19:42.941Z,6.93
2019-04-16T07:20:14.354Z,6.93
2019-04-16T07:20:46.633Z,6.96
2019-04-16T07:21:18.358Z,6.97
2019-04-16T07:21:51.627Z,7.00
2019-04-16T07:22:22.881Z,7.03
2019-04-16T07:22:55.539Z,7.06
2019-04-16T07:23:26.896Z,7.08
2019-04-16T07:23:59.334Z,7.13
2019-04-16T07:24:34.734Z,7.11